Time;durP1;ratioP1;P1;durP2;ratioP2;P2;SDS_P1;SDS_P2;PMS_P1;PMS_P2;Temp;Humidity;BMP_temperature;BMP_pressure;BME280_temperature;BME280_humidity;BME280_pressure;Samples;Min_cycle;Max_cycle;Signal;HPM_P1;HPM_P2
2021/03/09 00:00:34;;;;;;;26.25;12.40;;;;;;;-3.02;68.27;100673.81;124495;1106;102762;-79
2021/03/09 00:03:14;;;;;;;25.67;11.83;;;;;;;-3.03;67.99;100684.84;124521;1106;104216;-79
2021/03/09 00:05:42;;;;;;;27.07;12.63;;;;;;;-3.03;68.52;100687.40;124522;1106;104262;-78
2021/03/09 00:08:12;;;;;;;28.42;12.50;;;;;;;-3.03;68.07;100692.50;124611;1105;103053;-79
2021/03/09 00:10:40;;;;;;;35.77;13.90;;;;;;;-3.05;68.59;100687.35;124645;1109;104238;-78
2021/03/09 00:13:07;;;;;;;31.50;14.33;;;;;;;-3.07;68.28;100689.83;124613;1105;104127;-78
2021/03/09 00:15:34;;;;;;;29.47;12.60;;;;;;;-3.08;68.36;100689.79;124543;1109;104109;-79
2021/03/09 00:18:02;;;;;;;29.93;13.37;;;;;;;-3.08;68.52;100682.13;124546;1108;104233;-78
2021/03/09 00:20:29;;;;;;;28.98;13.68;;;;;;;-3.10;68.68;100693.98;124541;1109;104101;-78
2021/03/09 00:22:56;;;;;;;24.97;12.97;;;;;;;-3.12;68.41;100701.59;124543;1109;104189;-79
2021/03/09 00:25:23;;;;;;;29.43;12.47;;;;;;;-3.13;68.28;100693.89;124511;1105;104251;-78
2021/03/09 00:27:52;;;;;;;29.33;12.83;;;;;;;-3.15;68.13;100696.41;124506;1105;104165;-79
2021/03/09 00:30:20;;;;;;;30.30;13.57;;;;;;;-3.16;68.36;100692.13;124531;1106;105365;-78
2021/03/09 00:32:47;;;;;;;29.33;13.10;;;;;;;-3.17;68.56;100698.05;124602;1105;104165;-78
2021/03/09 00:35:14;;;;;;;26.23;12.43;;;;;;;-3.18;68.95;100690.34;124606;1105;106176;-78
2021/03/09 00:37:41;;;;;;;27.60;12.53;;;;;;;-3.21;69.29;100696.23;124561;1106;104258;-78
2021/03/09 00:40:09;;;;;;;33.40;13.80;;;;;;;-3.22;68.49;100691.95;124582;1105;101875;-78
2021/03/09 00:42:36;;;;;;;30.80;12.23;;;;;;;-3.24;68.33;100698.66;124568;1106;104384;-79
2021/03/09 00:45:04;;;;;;;31.97;12.40;;;;;;;-3.27;69.07;100690.05;124520;1109;104213;-79
2021/03/09 00:47:51;;;;;;;27.40;12.27;;;;;;;-3.29;69.30;100696.80;124590;1106;103480;-79
2021/03/09 00:50:18;;;;;;;31.37;12.70;;;;;;;-3.33;69.26;100700.94;124523;1105;104235;-78
2021/03/09 00:52:45;;;;;;;27.10;12.47;;;;;;;-3.38;69.53;100695.71;124539;1106;104178;-78
2021/03/09 00:55:13;;;;;;;26.37;11.27;;;;;;;-3.39;69.52;100703.31;124500;1106;104174;-78
2021/03/09 00:57:40;;;;;;;23.17;12.00;;;;;;;-3.42;69.11;100706.61;124534;1109;104194;-77
2021/03/09 01:00:07;;;;;;;27.47;11.30;;;;;;;-3.45;69.20;100701.42;124791;1105;104188;-79
2021/03/09 01:02:34;;;;;;;30.80;13.17;;;;;;;-3.48;69.63;100708.11;124487;1109;104283;-78
2021/03/09 01:05:02;;;;;;;26.50;12.93;;;;;;;-3.50;68.89;100700.41;124592;1105;104166;-77
2021/03/09 01:07:29;;;;;;;23.93;12.20;;;;;;;-3.52;69.42;100698.64;124595;1105;104095;-78
2021/03/09 01:09:56;;;;;;;26.03;11.80;;;;;;;-3.55;69.44;100694.31;124549;1105;104108;-77
2021/03/09 01:12:23;;;;;;;25.17;11.22;;;;;;;-3.57;69.54;100695.09;124570;1105;104169;-78
2021/03/09 01:14:50;;;;;;;26.50;11.25;;;;;;;-3.58;69.71;100698.45;124510;1106;104197;-79
2021/03/09 01:17:17;;;;;;;25.05;11.28;;;;;;;-3.60;69.68;100690.73;124573;1105;104163;-77
2021/03/09 01:19:44;;;;;;;19.90;10.10;;;;;;;-3.61;70.02;100695.78;124543;1105;104271;-77
2021/03/09 01:22:11;;;;;;;22.53;11.20;;;;;;;-3.61;69.85;100688.14;124533;1106;104121;-78
2021/03/09 01:24:38;;;;;;;25.70;10.93;;;;;;;-3.61;69.82;100688.14;124546;1109;104181;-78
2021/03/09 01:27:06;;;;;;;21.53;10.23;;;;;;;-3.62;69.39;100688.95;124532;1109;104108;-79
2021/03/09 01:29:33;;;;;;;25.10;11.10;;;;;;;-3.64;69.77;100694.00;124538;1106;104211;-78
2021/03/09 01:32:00;;;;;;;23.50;10.80;;;;;;;-3.65;70.06;100692.27;124530;1109;104696;-78
2021/03/09 01:34:28;;;;;;;20.93;10.17;;;;;;;-3.67;70.10;100689.68;124538;1105;104239;-77
2021/03/09 01:36:55;;;;;;;23.93;11.10;;;;;;;-3.68;69.98;100692.19;124553;1106;104213;-78
2021/03/09 01:39:22;;;;;;;28.90;11.17;;;;;;;-3.69;70.16;100683.67;124550;1105;104112;-78
2021/03/09 01:41:49;;;;;;;21.93;11.13;;;;;;;-3.68;70.54;100692.19;124561;1106;104280;-79
2021/03/09 01:44:17;;;;;;;23.60;10.60;;;;;;;-3.69;70.40;100686.22;124504;1105;104317;-78
2021/03/09 01:46:46;;;;;;;27.07;11.57;;;;;;;-3.70;70.04;100696.37;124532;1106;104169;-79
2021/03/09 01:49:17;;;;;;;22.83;10.37;;;;;;;-3.72;70.25;100696.33;124543;1109;104184;-78
2021/03/09 01:51:46;;;;;;;23.00;10.93;;;;;;;-3.73;70.52;100698.83;124573;1105;104143;-78
2021/03/09 01:54:14;;;;;;;25.00;10.40;;;;;;;-3.74;70.45;100703.05;124571;1109;104139;-77
2021/03/09 01:56:42;;;;;;;23.70;10.05;;;;;;;-3.75;69.96;100698.78;124616;1105;104210;-79
2021/03/09 01:59:10;;;;;;;19.77;10.07;;;;;;;-3.77;70.51;100695.31;124526;1109;104243;-78
2021/03/09 02:01:37;;;;;;;21.73;9.70;;;;;;;-3.77;70.39;100700.41;124552;1106;104239;-78
2021/03/09 02:04:05;;;;;;;21.30;10.17;;;;;;;-3.77;70.12;100702.97;124546;1105;104131;-78
2021/03/09 02:06:34;;;;;;;22.32;9.83;;;;;;;-3.79;70.42;100699.47;124560;1107;101626;-79
2021/03/09 02:09:05;;;;;;;22.63;11.17;;;;;;;-3.81;70.61;100701.11;124552;1105;104158;-78
2021/03/09 02:11:57;;;;;;;24.67;10.90;;;;;;;-3.84;70.07;100695.91;124490;1106;105803;-78
2021/03/09 02:14:24;;;;;;;22.97;10.63;;;;;;;-3.86;70.22;100705.19;124506;1106;104124;-79
2021/03/09 02:17:16;;;;;;;24.07;10.17;;;;;;;-3.91;70.49;100699.09;124617;1105;104264;-78
2021/03/09 02:19:49;;;;;;;19.03;10.07;;;;;;;-3.94;70.49;100701.54;124670;1105;104268;-77
2021/03/09 02:22:51;;;;;;;25.60;11.00;;;;;;;-3.94;70.67;100700.67;124609;1105;104682;-77
2021/03/09 02:25:50;;;;;;;24.20;9.37;;;;;;;-3.97;70.92;100699.73;124544;1105;104173;-78
2021/03/09 02:28:32;;;;;;;22.10;10.10;;;;;;;-3.97;70.94;100698.86;124553;1105;104615;-79
2021/03/09 02:31:00;;;;;;;24.07;10.43;;;;;;;-3.99;70.51;100696.27;124781;1105;104159;-78
2021/03/09 02:33:39;;;;;;;21.17;10.33;;;;;;;-4.00;70.85;100701.31;124565;1106;102483;-78
2021/03/09 02:36:11;;;;;;;22.83;11.23;;;;;;;-4.03;71.17;100693.57;124560;1106;104131;-78
2021/03/09 02:38:47;;;;;;;25.00;9.97;;;;;;;-4.05;70.60;100698.62;124514;1106;105452;-78
2021/03/09 02:41:17;;;;;;;22.40;10.38;;;;;;;-4.06;70.84;100709.62;124538;1109;104159;-78
2021/03/09 02:43:47;;;;;;;20.43;9.77;;;;;;;-4.07;71.15;100709.58;124722;1105;104197;-79
2021/03/09 02:46:17;;;;;;;20.97;10.57;;;;;;;-4.08;71.18;100710.39;124615;1105;104232;-79
2021/03/09 02:48:46;;;;;;;26.77;10.87;;;;;;;-4.10;70.83;100709.48;124804;1105;104145;-79
2021/03/09 02:51:14;;;;;;;20.97;9.87;;;;;;;-4.10;71.34;100714.57;124551;1105;104108;-79
2021/03/09 02:53:51;;;;;;;25.40;11.13;;;;;;;-4.11;71.10;100716.25;124565;1106;104236;-79
2021/03/09 02:56:20;;;;;;;24.03;10.87;;;;;;;-4.11;71.14;100712.84;124522;1105;104226;-79
2021/03/09 02:58:54;;;;;;;26.97;12.90;;;;;;;-4.11;71.54;100716.25;124646;1105;104078;-79
2021/03/09 03:01:25;;;;;;;24.20;10.77;;;;;;;-4.11;71.10;100721.34;124546;1105;104236;-79
2021/03/09 03:03:54;;;;;;;21.63;11.13;;;;;;;-4.11;71.07;100720.48;124570;1105;104059;-78
2021/03/09 03:06:24;;;;;;;26.83;11.57;;;;;;;-4.12;71.44;100716.20;124576;1105;104021;-79
2021/03/09 03:08:52;;;;;;;23.87;11.27;;;;;;;-4.12;71.02;100723.84;124585;1105;104216;-78
2021/03/09 03:11:20;;;;;;;23.47;11.33;;;;;;;-4.14;71.18;100721.22;124556;1105;104197;-79
2021/03/09 03:13:49;;;;;;;26.50;11.67;;;;;;;-4.17;71.04;100720.25;124538;1106;104156;-79
2021/03/09 03:16:20;;;;;;;26.30;12.10;;;;;;;-4.18;71.57;100711.74;124535;1108;104216;-78
2021/03/09 03:18:48;;;;;;;23.40;10.90;;;;;;;-4.19;71.71;100714.23;124579;1106;104134;-79
2021/03/09 03:21:17;;;;;;;29.00;11.87;;;;;;;-4.20;71.31;100723.56;124548;1109;104137;-79
2021/03/09 03:23:44;;;;;;;25.30;11.60;;;;;;;-4.22;71.74;100714.14;124558;1105;104137;-79
2021/03/09 03:26:12;;;;;;;27.10;12.03;;;;;;;-4.23;71.55;100720.05;124766;1105;103615;-78
2021/03/09 03:28:45;;;;;;;27.47;12.10;;;;;;;-4.23;71.94;100726.01;124514;1106;104278;-79
2021/03/09 03:31:12;;;;;;;25.03;12.00;;;;;;;-4.24;71.68;100724.27;124562;1109;104207;-78
2021/03/09 03:33:40;;;;;;;23.90;12.40;;;;;;;-4.24;71.85;100723.41;124503;1109;104140;-79
2021/03/09 03:36:07;;;;;;;27.33;12.30;;;;;;;-4.26;71.61;100726.77;124564;1105;104791;-79
2021/03/09 03:38:40;;;;;;;26.73;12.00;;;;;;;-4.27;71.90;100725.04;124497;1105;104187;-79
2021/03/09 03:41:10;;;;;;;29.03;11.37;;;;;;;-4.28;71.67;100723.31;124569;1105;104002;-78
2021/03/09 03:43:37;;;;;;;23.73;11.53;;;;;;;-4.27;71.70;100721.63;124589;1109;104105;-78
2021/03/09 03:46:07;;;;;;;27.35;11.40;;;;;;;-4.28;71.75;100725.86;124535;1106;104219;-78
2021/03/09 03:48:36;;;;;;;22.13;10.80;;;;;;;-4.30;72.16;100721.52;124656;1105;104705;-79
2021/03/09 03:51:07;;;;;;;22.27;11.73;;;;;;;-4.31;72.24;100727.40;124566;1106;103704;-78
2021/03/09 03:53:46;;;;;;;24.53;11.00;;;;;;;-4.32;71.84;100730.77;124525;1106;104278;-78
2021/03/09 03:56:16;;;;;;;23.93;11.13;;;;;;;-4.32;72.08;100736.72;124537;1105;104280;-78
2021/03/09 03:59:02;;;;;;;22.07;10.83;;;;;;;-4.32;72.18;100728.22;124569;1105;102889;-79
2021/03/09 04:01:29;;;;;;;23.47;10.70;;;;;;;-4.32;72.02;100735.85;124541;1105;104262;-79
2021/03/09 04:03:59;;;;;;;24.17;11.30;;;;;;;-4.30;71.57;100737.67;124533;1109;104650;-79
2021/03/09 04:06:28;;;;;;;23.93;11.20;;;;;;;-4.29;72.43;100728.34;124618;1106;104157;-79
2021/03/09 04:08:59;;;;;;;23.13;10.80;;;;;;;-4.30;71.98;100740.22;124560;1109;104223;-79
2021/03/09 04:11:27;;;;;;;23.07;11.27;;;;;;;-4.30;72.47;100732.58;124537;1105;104159;-79
2021/03/09 04:13:54;;;;;;;24.33;11.73;;;;;;;-4.30;71.95;100732.58;124540;1106;104255;-79
2021/03/09 04:16:21;;;;;;;24.43;11.77;;;;;;;-4.29;71.75;100728.34;124702;1105;104108;-79
2021/03/09 04:18:50;;;;;;;24.03;10.70;;;;;;;-4.27;72.12;100732.68;124490;1106;104168;-79
2021/03/09 04:21:17;;;;;;;23.35;11.60;;;;;;;-4.26;72.54;100723.36;124635;1105;104640;-79
2021/03/09 04:23:45;;;;;;;27.53;12.47;;;;;;;-4.25;72.27;100727.64;124622;1105;104166;-79
2021/03/09 04:26:14;;;;;;;26.97;11.63;;;;;;;-4.23;72.08;100727.69;124540;1107;104194;-79
2021/03/09 04:28:41;;;;;;;22.80;11.33;;;;;;;-4.22;72.06;100730.28;124586;1105;104194;-79
2021/03/09 04:31:08;;;;;;;23.43;11.37;;;;;;;-4.19;72.40;100721.87;124641;1105;104114;-79
2021/03/09 04:33:36;;;;;;;27.47;11.17;;;;;;;-4.23;72.11;100726.01;124610;1108;104114;-79
2021/03/09 04:36:04;;;;;;;24.43;10.83;;;;;;;-4.22;72.17;100716.69;124569;1109;104114;-80
2021/03/09 04:38:32;;;;;;;23.20;10.87;;;;;;;-4.20;71.76;100718.47;124764;1105;104101;-80
2021/03/09 04:40:59;;;;;;;21.27;10.70;;;;;;;-4.18;71.59;100719.38;124681;1105;104198;-79
2021/03/09 04:43:27;;;;;;;28.70;11.70;;;;;;;-4.19;71.77;100717.65;124521;1109;104233;-80
2021/03/09 04:46:01;;;;;;;21.97;11.00;;;;;;;-4.17;72.02;100716.02;124538;1105;104236;-80
2021/03/09 04:48:39;;;;;;;21.57;10.73;;;;;;;-4.15;71.68;100710.98;124635;1106;104288;-80
2021/03/09 04:51:11;;;;;;;22.87;11.10;;;;;;;-4.14;71.49;100711.03;124550;1107;104130;-79
2021/03/09 04:53:39;;;;;;;25.63;11.93;;;;;;;-4.15;71.75;100710.98;124529;1107;104645;-79
2021/03/09 04:56:07;;;;;;;23.33;10.90;;;;;;;-4.14;71.54;100712.70;124549;1105;104156;-80
2021/03/09 04:58:35;;;;;;;22.37;11.30;;;;;;;-4.12;71.88;100709.42;124574;1106;104117;-80
2021/03/09 05:01:03;;;;;;;20.53;10.60;;;;;;;-4.10;71.75;100706.93;124538;1109;104271;-79
2021/03/09 05:03:32;;;;;;;24.33;12.27;;;;;;;-4.08;71.75;100710.39;124586;1106;104149;-79
2021/03/09 05:05:59;;;;;;;22.53;11.47;;;;;;;-4.08;71.29;100716.35;124655;1105;104290;-79
2021/03/09 05:08:27;;;;;;;20.00;10.63;;;;;;;-4.07;71.73;100717.22;124543;1109;104363;-79
2021/03/09 05:10:54;;;;;;;25.23;12.40;;;;;;;-4.05;71.11;100718.13;124583;1105;104102;-80
2021/03/09 05:13:22;;;;;;;22.75;11.60;;;;;;;-4.02;71.51;100723.33;124535;1105;104194;-79
2021/03/09 05:15:49;;;;;;;25.20;11.73;;;;;;;-4.00;71.35;100726.79;124500;1106;104270;-79
2021/03/09 05:18:18;;;;;;;24.93;11.10;;;;;;;-3.93;71.75;100730.43;124606;1105;104210;-80
2021/03/09 05:20:45;;;;;;;27.57;11.80;;;;;;;-3.87;71.44;100733.17;124523;1105;104300;-79
2021/03/09 05:23:12;;;;;;;23.87;12.53;;;;;;;-3.80;71.53;100728.32;124597;1105;103072;-79
2021/03/09 05:25:39;;;;;;;24.43;11.43;;;;;;;-3.72;71.70;100737.11;124547;1105;104121;-79
2021/03/09 05:28:06;;;;;;;22.10;10.80;;;;;;;-3.60;71.27;100741.72;124575;1106;104273;-79
2021/03/09 05:30:33;;;;;;;25.13;11.60;;;;;;;-3.44;71.37;100738.84;124558;1106;104251;-78
2021/03/09 05:33:01;;;;;;;22.10;11.60;;;;;;;-3.24;71.15;100741.16;124514;1109;104355;-78
2021/03/09 05:35:28;;;;;;;26.90;11.87;;;;;;;-3.08;70.76;100736.58;124602;1105;104255;-79
2021/03/09 05:37:59;;;;;;;30.70;14.53;;;;;;;-2.87;70.46;100748.25;124601;1106;104851;-79
2021/03/09 05:40:27;;;;;;;44.07;24.47;;;;;;;-2.59;70.78;100745.70;124578;1106;104198;-78
2021/03/09 05:42:54;;;;;;;29.37;15.43;;;;;;;-2.29;70.06;100744.84;124682;1106;104602;-79
2021/03/09 05:45:23;;;;;;;23.53;12.27;;;;;;;-2.05;69.32;100735.27;124524;1106;104280;-80
2021/03/09 05:47:51;;;;;;;26.20;12.67;;;;;;;-1.79;69.17;100737.66;124565;1105;104160;-79
2021/03/09 05:50:19;;;;;;;25.67;13.37;;;;;;;-1.53;68.69;100741.72;124800;1105;104133;-79
2021/03/09 05:52:46;;;;;;;30.20;14.80;;;;;;;-1.22;69.36;100739.07;124566;1106;104149;-79
2021/03/09 05:55:14;;;;;;;30.70;15.25;;;;;;;-0.86;68.01;100748.41;124720;1105;104232;-79
2021/03/09 05:57:42;;;;;;;25.27;12.98;;;;;;;-0.50;67.72;100742.34;124526;1109;104270;-79
2021/03/09 06:00:11;;;;;;;22.13;11.67;;;;;;;-0.15;67.20;100731.08;124682;1105;104002;-79
2021/03/09 06:02:40;;;;;;;19.50;10.73;;;;;;;0.23;66.39;100738.60;124589;1109;104169;-79
2021/03/09 06:05:10;;;;;;;21.10;11.77;;;;;;;0.66;66.02;100735.03;124593;1105;103561;-80
2021/03/09 06:07:38;;;;;;;18.93;11.00;;;;;;;1.10;64.95;100743.42;124533;1109;102070;-80
2021/03/09 06:10:12;;;;;;;19.00;10.93;;;;;;;1.53;63.70;100741.41;124548;1109;104219;-79
2021/03/09 06:12:40;;;;;;;19.37;10.67;;;;;;;2.00;62.76;100741.96;124564;1109;102741;-79
2021/03/09 06:15:07;;;;;;;14.15;9.35;;;;;;;2.54;61.96;100737.31;124521;1106;104214;-79
2021/03/09 06:17:39;;;;;;;19.17;9.80;;;;;;;2.97;61.12;100736.77;124541;1109;104230;-79
2021/03/09 06:20:18;;;;;;;16.13;8.57;;;;;;;3.50;59.94;100738.78;124584;1105;104236;-78
2021/03/09 06:22:47;;;;;;;14.83;8.57;;;;;;;4.17;59.35;100746.74;124747;1105;104277;-79
2021/03/09 06:25:17;;;;;;;14.83;8.97;;;;;;;5.16;57.65;100743.27;124534;1108;104236;-79
2021/03/09 06:27:45;;;;;;;15.00;9.00;;;;;;;6.36;57.21;100742.75;124529;1105;104241;-79
2021/03/09 06:30:14;;;;;;;16.50;9.37;;;;;;;7.41;55.62;100734.88;124685;1106;104176;-79
2021/03/09 06:32:45;;;;;;;16.77;9.03;;;;;;;8.30;54.29;100748.42;124804;1105;104297;-78
2021/03/09 06:35:35;;;;;;;15.80;9.20;;;;;;;8.88;52.39;100744.91;124530;1105;104207;-79
2021/03/09 06:38:25;;;;;;;15.63;8.97;;;;;;;9.26;50.76;100740.77;124626;1106;104117;-80
2021/03/09 06:41:16;;;;;;;12.93;8.73;;;;;;;9.59;49.63;100732.30;124784;1105;104587;-80
2021/03/09 06:43:59;;;;;;;15.03;8.87;;;;;;;10.09;49.46;100740.79;124687;1105;104163;-81
2021/03/09 06:46:26;;;;;;;16.47;9.80;;;;;;;10.58;48.13;100744.88;124704;1109;104205;-80
2021/03/09 06:49:00;;;;;;;15.60;8.80;;;;;;;11.08;47.22;100743.61;124660;1109;104088;-79
2021/03/09 06:51:35;;;;;;;14.30;8.50;;;;;;;11.38;46.57;100736.72;124662;1105;104140;-80
2021/03/09 06:54:12;;;;;;;16.20;8.43;;;;;;;11.57;45.97;100744.89;124648;1105;104253;-80
2021/03/09 06:56:42;;;;;;;19.05;12.18;;;;;;;11.92;44.16;100746.52;124627;1105;104315;-80
2021/03/09 06:59:21;;;;;;;15.23;9.00;;;;;;;12.17;44.06;100748.39;124576;1107;103045;-79
2021/03/09 07:02:13;;;;;;;12.40;7.47;;;;;;;12.29;42.41;100748.02;124566;1105;104107;-79
2021/03/09 07:04:42;;;;;;;15.97;8.83;;;;;;;12.41;42.57;100747.64;124578;1105;104188;-80
2021/03/09 07:07:12;;;;;;;13.10;7.87;;;;;;;12.53;41.69;100754.22;124624;1105;104213;-80
2021/03/09 07:09:52;;;;;;;11.87;7.53;;;;;;;12.55;41.13;100757.64;124551;1109;101662;-80
2021/03/09 07:12:19;;;;;;;13.45;8.00;;;;;;;12.36;40.66;100757.38;124575;1107;104155;-79
2021/03/09 07:14:49;;;;;;;14.40;8.00;;;;;;;12.21;40.13;100750.89;124489;1109;104281;-79
2021/03/09 07:17:19;;;;;;;11.70;7.00;;;;;;;12.38;40.05;100747.72;124574;1109;104144;-79
2021/03/09 07:19:48;;;;;;;14.63;7.20;;;;;;;12.86;39.67;100749.66;124583;1106;101710;-79
2021/03/09 07:22:17;;;;;;;9.30;6.07;;;;;;;13.26;38.54;100747.41;124593;1106;102003;-79
2021/03/09 07:25:04;;;;;;;9.05;6.10;;;;;;;13.77;38.00;100737.71;124579;1105;104268;-79
2021/03/09 07:27:38;;;;;;;8.43;5.10;;;;;;;14.53;37.52;100736.52;124610;1106;103915;-79
2021/03/09 07:30:12;;;;;;;6.30;4.33;;;;;;;15.08;35.70;100732.44;124617;1109;104283;-79
2021/03/09 07:32:42;;;;;;;7.03;4.80;;;;;;;15.72;36.36;100734.89;124684;1106;104379;-80
2021/03/09 07:35:10;;;;;;;7.23;4.80;;;;;;;16.39;35.24;100733.52;124908;1105;103072;-79
2021/03/09 07:37:39;;;;;;;8.13;5.20;;;;;;;17.10;34.69;100729.95;124693;1109;104297;-80
2021/03/09 07:40:16;;;;;;;8.60;4.75;;;;;;;17.58;34.01;100727.44;124512;1109;104149;-80
2021/03/09 07:42:43;;;;;;;12.83;9.33;;;;;;;18.07;33.88;100726.52;124697;1105;104018;-80
2021/03/09 07:45:21;;;;;;;10.63;5.87;;;;;;;18.24;32.88;100732.64;124754;1105;104146;-80
2021/03/09 07:47:51;;;;;;;7.87;5.10;;;;;;;18.56;31.59;100731.67;124612;1109;104156;-81
2021/03/09 07:50:19;;;;;;;6.53;4.90;;;;;;;18.99;31.25;100723.89;124623;1105;104194;-79
2021/03/09 07:53:10;;;;;;;7.70;4.80;;;;;;;19.18;30.26;100726.29;124581;1109;104280;-80
2021/03/09 07:55:38;;;;;;;6.23;4.03;;;;;;;19.61;29.74;100719.27;124613;1105;103976;-80
2021/03/09 07:58:24;;;;;;;7.67;4.40;;;;;;;19.53;29.07;100722.34;124637;1105;104107;-80
2021/03/09 08:00:54;;;;;;;9.07;4.80;;;;;;;19.84;29.37;100731.91;124671;1106;104133;-80
2021/03/09 08:03:26;;;;;;;11.50;8.43;;;;;;;20.62;28.43;100731.34;124660;1105;104124;-81
2021/03/09 08:05:56;;;;;;;9.40;5.10;;;;;;;21.42;28.49;100722.36;124802;1105;104109;-81
2021/03/09 08:08:44;;;;;;;10.77;4.70;;;;;;;22.01;27.26;100720.77;124761;1106;103000;-81
2021/03/09 08:11:13;;;;;;;11.10;7.13;;;;;;;22.44;25.62;100711.48;124900;1106;105437;-80
2021/03/09 08:13:43;;;;;;;9.10;4.73;;;;;;;22.60;26.28;100715.55;124802;1105;104621;-80
2021/03/09 08:16:19;;;;;;;8.47;3.70;;;;;;;23.18;25.58;100715.64;124555;1106;104178;-80
2021/03/09 08:18:51;;;;;;;6.77;3.80;;;;;;;23.65;25.22;100708.42;124621;1106;104105;-81
2021/03/09 08:21:19;;;;;;;5.70;3.80;;;;;;;24.09;24.91;100711.04;124609;1105;103997;-80
2021/03/09 08:23:46;;;;;;;10.57;6.97;;;;;;;24.43;24.65;100715.46;124633;1106;104134;-80
2021/03/09 08:26:25;;;;;;;11.10;8.07;;;;;;;24.75;24.06;100702.09;124836;1105;104267;-81
2021/03/09 08:28:53;;;;;;;4.00;3.07;;;;;;;24.51;23.19;100705.84;124936;1105;104149;-81
2021/03/09 08:31:20;;;;;;;4.73;3.00;;;;;;;24.25;22.18;100697.31;124775;1105;104621;-81
2021/03/09 08:33:52;;;;;;;5.47;2.93;;;;;;;23.70;22.08;100700.94;124725;1106;104183;-81
2021/03/09 08:36:19;;;;;;;5.17;2.97;;;;;;;23.04;20.66;100706.05;124626;1106;104121;-81
2021/03/09 08:39:07;;;;;;;9.37;3.13;;;;;;;22.53;21.46;100718.78;124821;1106;102841;-80
2021/03/09 08:41:34;;;;;;;5.90;3.50;;;;;;;21.99;21.98;100709.41;124875;1105;104531;-82
2021/03/09 08:46:55;;;;;;;5.53;4.50;;;;;;;22.15;22.23;100714.48;124947;1105;104133;-81
2021/03/09 08:49:38;;;;;;;8.60;6.63;;;;;;;21.77;22.42;100711.06;124979;1105;102280;-81
2021/03/09 08:52:05;;;;;;;4.87;3.67;;;;;;;21.65;22.45;100708.31;125102;1105;104137;-81
2021/03/09 08:54:50;;;;;;;5.57;3.80;;;;;;;21.37;22.64;100716.54;124803;1105;104255;-81
2021/03/09 08:57:20;;;;;;;6.93;3.40;;;;;;;21.38;21.89;100710.27;124907;1105;102127;-81
2021/03/09 09:00:04;;;;;;;8.63;3.37;;;;;;;21.68;22.67;100705.44;125243;1105;103939;-81
2021/03/09 09:02:32;;;;;;;5.13;3.40;;;;;;;22.06;21.17;100708.98;125442;1105;103487;-80
2021/03/09 09:05:02;;;;;;;6.63;3.40;;;;;;;22.00;22.15;100712.91;124966;1109;103028;-81
2021/03/09 09:07:34;;;;;;;5.50;3.73;;;;;;;22.04;21.28;100714.38;124673;1106;104128;-80
2021/03/09 09:10:09;;;;;;;6.67;4.03;;;;;;;22.03;21.58;100716.19;124907;1105;104614;-80
2021/03/09 09:12:38;;;;;;;5.63;3.87;;;;;;;21.97;21.65;100715.80;124689;1105;104255;-80
2021/03/09 09:15:07;;;;;;;5.63;3.80;;;;;;;21.89;21.39;100713.67;124746;1105;105056;-80
2021/03/09 09:17:36;;;;;;;5.33;3.70;;;;;;;21.75;21.26;100705.88;124738;1105;104222;-82
2021/03/09 09:20:09;;;;;;;5.67;3.57;;;;;;;21.95;21.96;100710.59;124682;1106;104226;-80
2021/03/09 09:22:37;;;;;;;5.43;3.77;;;;;;;21.99;20.42;100708.56;124810;1106;104015;-82
2021/03/09 09:25:07;;;;;;;8.17;3.87;;;;;;;21.84;20.58;100707.84;124705;1105;103973;-82
2021/03/09 09:27:41;;;;;;;7.23;4.30;;;;;;;21.45;21.06;100708.03;124694;1105;104188;-82
2021/03/09 09:30:09;;;;;;;7.90;4.97;;;;;;;21.06;20.62;100705.34;124701;1105;104274;-82
2021/03/09 09:32:49;;;;;;;5.73;4.10;;;;;;;20.95;21.46;100701.72;124704;1109;104200;-81
2021/03/09 09:35:19;;;;;;;5.73;3.77;;;;;;;20.57;20.71;100699.00;124791;1105;104072;-82
2021/03/09 09:38:07;;;;;;;5.27;3.70;;;;;;;19.87;20.81;100705.24;124769;1106;104117;-81
2021/03/09 09:40:38;;;;;;;6.47;3.90;;;;;;;19.33;21.86;100715.63;124705;1106;104355;-81
2021/03/09 09:43:12;;;;;;;10.27;6.57;;;;;;;19.66;22.45;100716.34;124864;1106;104586;-82
2021/03/09 09:46:01;;;;;;;7.20;3.70;;;;;;;19.59;21.79;100705.30;124916;1106;104815;-81
2021/03/09 09:48:35;;;;;;;6.70;3.63;;;;;;;19.52;22.27;100701.28;124724;1106;104238;-81
2021/03/09 09:51:05;;;;;;;10.37;6.93;;;;;;;20.07;21.58;100701.31;124750;1109;104002;-81
2021/03/09 09:53:38;;;;;;;9.43;4.93;;;;;;;20.43;21.51;100706.05;124791;1109;104197;-82
2021/03/09 09:56:11;;;;;;;9.53;5.37;;;;;;;20.70;20.39;100707.84;124794;1105;104162;-80
2021/03/09 09:58:41;;;;;;;7.13;4.80;;;;;;;20.53;21.36;100702.81;124734;1105;104239;-81
2021/03/09 10:01:13;;;;;;;7.10;3.80;;;;;;;20.51;20.41;100695.81;124726;1105;104159;-82
2021/03/09 10:03:54;;;;;;;7.83;5.50;;;;;;;20.53;19.65;100700.16;124761;1106;104220;-81
2021/03/09 10:06:24;;;;;;;5.90;3.43;;;;;;;20.24;21.19;100702.88;124665;1105;103999;-82
2021/03/09 10:08:51;;;;;;;4.23;2.93;;;;;;;20.23;20.80;100691.44;124711;1107;104142;-82
2021/03/09 10:11:20;;;;;;;7.50;4.53;;;;;;;20.17;19.33;100693.64;124712;1105;104124;-81
2021/03/09 10:13:47;;;;;;;5.75;3.30;;;;;;;19.77;20.78;100701.50;124654;1109;104142;-82
2021/03/09 10:16:14;;;;;;;9.53;3.43;;;;;;;19.86;20.65;100692.95;124624;1106;104127;-83
2021/03/09 10:18:42;;;;;;;7.23;3.27;;;;;;;19.73;20.77;100697.31;124652;1106;104114;-82
2021/03/09 10:21:14;;;;;;;8.17;3.43;;;;;;;19.55;19.87;100691.37;124613;1106;104290;-82
2021/03/09 10:23:59;;;;;;;4.07;2.60;;;;;;;19.34;20.15;100692.69;124647;1105;104197;-81
2021/03/09 10:26:26;;;;;;;4.70;2.80;;;;;;;18.17;20.44;100689.05;124626;1109;104275;-82
2021/03/09 10:29:21;;;;;;;11.53;7.77;;;;;;;17.44;20.42;100688.64;124762;1105;104162;-81
2021/03/09 10:31:52;;;;;;;5.43;3.83;;;;;;;17.40;21.59;100690.56;124643;1108;104142;-82
2021/03/09 10:34:34;;;;;;;5.30;3.10;;;;;;;16.95;21.30;100695.63;124682;1109;104199;-83
2021/03/09 10:37:02;;;;;;;4.80;2.70;;;;;;;16.33;21.47;100701.27;124672;1109;104170;-82
2021/03/09 10:39:32;;;;;;;4.80;2.97;;;;;;;16.37;21.46;100699.38;124647;1106;104239;-82
2021/03/09 10:42:26;;;;;;;5.27;2.23;;;;;;;16.33;21.58;100689.89;124716;1109;104133;-82
2021/03/09 10:44:54;;;;;;;7.43;4.50;;;;;;;15.96;21.91;100699.55;124682;1105;102244;-81
2021/03/09 10:47:22;;;;;;;5.57;3.20;;;;;;;15.39;21.31;100695.17;124637;1109;104149;-83
2021/03/09 10:49:49;;;;;;;5.70;2.53;;;;;;;14.68;21.58;100694.74;124643;1109;104208;-82
2021/03/09 10:52:16;;;;;;;5.30;2.98;;;;;;;14.10;22.66;100691.84;124675;1105;104162;-82
2021/03/09 10:54:59;;;;;;;4.53;2.90;;;;;;;13.87;22.21;100697.14;124649;1105;104248;-81
2021/03/09 10:57:27;;;;;;;4.83;3.07;;;;;;;13.60;22.46;100696.40;124787;1105;104204;-80
2021/03/09 10:59:54;;;;;;;6.30;2.50;;;;;;;13.34;22.85;100699.14;124748;1109;104137;-80
2021/03/09 11:02:22;;;;;;;8.97;2.53;;;;;;;13.50;22.53;100700.30;124679;1109;104130;-81
2021/03/09 11:04:49;;;;;;;6.73;2.37;;;;;;;13.73;21.94;100687.17;124688;1106;104291;-81
2021/03/09 11:07:16;;;;;;;3.93;2.53;;;;;;;13.91;22.69;100694.33;124612;1109;104219;-80
2021/03/09 11:09:43;;;;;;;4.30;2.30;;;;;;;14.19;22.84;100682.77;124751;1106;104165;-81
2021/03/09 11:12:11;;;;;;;3.10;2.10;;;;;;;13.93;22.73;100682.92;124760;1109;104201;-81
2021/03/09 11:14:39;;;;;;;7.00;2.40;;;;;;;13.37;23.12;100678.06;124699;1109;105146;-81
2021/03/09 11:17:07;;;;;;;5.73;3.63;;;;;;;13.18;23.53;100673.50;124606;1105;104152;-83
2021/03/09 11:19:34;;;;;;;4.10;2.83;;;;;;;13.21;22.18;100673.38;124766;1109;104108;-81